Froid, MT (59226)

8:34 AM MST on December 26, 2014 (GMT -0700)
APRSWXNET Froid MT US | Change Station
CLOSE
Current Station
Personal Weather Station
Location: Froid, MT
Elevation: 2037 ft
Nearby Weather Stations

Elev 2037 ft 48.33 °N, 104.49 °W | Updated 39 minutes ago

Overcast
Overcast
12 °F
Feels Like 12 °F
N
1
Wind Variable Wind from East
Gusts 3.0 mph

Today
High -- | Low -- °F
--% Chance of Precip.
Yesterday
High -- | Low -- °F
Precip. -- in
7:48 AM 4:08 PM
Waxing Crescent, 26% visible
Pressure 30.28 in
Visibility 10.0 miles
Clouds Overcast 1100 ft
Windchill 12 °F
Dew Point 10 °F
Humidity 90%
Rainfall 0.00 in
Snow Depth Not available.
UV 0 out of 12
Pollen .10 out of 12
Air Quality Not available.
Flu Activity Not available.
METAR KISN 261452Z AUTO 00000KT 10SM OVC011 M11/M13 A3016 RMK AO2 SLP254 60000 T11061133 51014

More Conditions Fewer Conditions

Pressure 30.28 in
Visibility 10.0 miles
Clouds Overcast 1100 ft
Windchill 12 °F
Dew Point 10 °F
Humidity 90%
Rainfall 0.00 in
Snow Depth Not available.
UV 0 out of 12
Pollen .10 out of 12
Air Quality Not available.
Flu Activity Not available.
METAR KISN 261452Z AUTO 00000KT 10SM OVC011 M11/M13 A3016 RMK AO2 SLP254 60000 T11061133 51014

More Conditions Fewer Conditions

10-Day Weather Forecast

Almanac

Astronomy

Dec. 26, 2014 Rise Set
Actual Time
Civil Twilight
Nautical Twilight
Astronomical Twilight
Moon
Length of Visible Light
Length of Day
Tomorrow will be .
, % of the Moon is Illuminated

Today's Extremes

State Highs State Lows

Community

WunderPhotos

Upload Photos

1,780,608 photos uploaded!

WunderBlogs® & News

Nearby

Air Quality

  Air Quality AQ Index Pollutant
Not available.

Snow Depth

Station Depth Elevation

Earthquake Activity

City Distance Mag. Time & Date
Minimum magnitude displayed is 2.5.

Coastal Water Temperatures

Place Temperature

Nearby Weather Stations